Time;durP1;ratioP1;P1;durP2;ratioP2;P2;SDS_P1;SDS_P2;PMS_P1;PMS_P2;Temp;Humidity;BMP_temperature;BMP_pressure;BME280_temperature;BME280_humidity;BME280_pressure;Samples;Min_cycle;Max_cycle;Signal;HPM_P1;HPM_P2
2021/03/02 00:03:52;;;;;;;29.40;15.45;;;2.90;99.90;;;;;;12486599;28;20033;-82
2021/03/02 00:09:54;;;;;;;30.63;15.45;;;2.90;99.90;;;;;;12493118;28;20046;-82
2021/03/02 00:16:03;;;;;;;32.13;16.08;;;2.80;99.90;;;;;;12505732;28;20041;-82
2021/03/02 00:22:23;;;;;;;34.15;17.20;;;2.80;99.90;;;;;;12496889;28;20164;-83
2021/03/02 00:28:26;;;;;;;30.80;15.43;;;2.60;99.90;;;;;;12488618;28;20164;-82
2021/03/02 00:34:28;;;;;;;27.65;15.20;;;2.60;99.90;;;;;;12480963;28;20124;-83
2021/03/02 00:40:29;;;;;;;25.52;13.45;;;2.40;99.90;;;;;;12436359;28;20049;-82
2021/03/02 00:46:30;;;;;;;34.10;16.67;;;2.10;99.90;;;;;;12453357;28;20063;-82
2021/03/02 00:52:32;;;;;;;32.72;15.80;;;2.30;99.90;;;;;;12445167;28;20452;-82
2021/03/02 00:58:34;;;;;;;33.92;16.83;;;2.20;99.90;;;;;;12437206;28;20056;-83
2021/03/02 01:04:36;;;;;;;29.80;15.15;;;2.00;99.90;;;;;;12434374;28;20037;-82
2021/03/02 01:10:38;;;;;;;31.70;16.17;;;1.90;99.90;;;;;;12433736;28;20042;-82
2021/03/02 01:16:47;;;;;;;31.73;15.88;;;1.70;99.90;;;;;;12440288;28;20096;-82
2021/03/02 01:22:49;;;;;;;34.90;17.15;;;1.70;99.90;;;;;;12438710;28;20520;-82
2021/03/02 01:28:50;;;;;;;33.83;16.30;;;1.80;99.90;;;;;;12444840;28;20525;-82
2021/03/02 01:34:52;;;;;;;33.13;16.02;;;1.60;99.90;;;;;;12441245;28;20049;-82
2021/03/02 01:40:53;;;;;;;40.33;17.63;;;1.50;99.90;;;;;;12441576;28;20049;-82
2021/03/02 01:47:09;;;;;;;31.25;14.05;;;1.60;99.90;;;;;;12436099;28;20061;-82
2021/03/02 01:53:11;;;;;;;30.30;15.18;;;1.50;99.90;;;;;;12440524;28;20042;-82
2021/03/02 01:59:12;;;;;;;34.58;16.35;;;1.40;99.90;;;;;;12438434;28;20048;-82
2021/03/02 02:05:15;;;;;;;33.85;15.00;;;1.30;99.90;;;;;;12444059;28;20325;-82
2021/03/02 02:11:32;;;;;;;31.85;15.73;;;1.20;99.90;;;;;;12440361;28;20042;-82
2021/03/02 02:17:58;;;;;;;33.20;16.42;;;1.20;99.90;;;;;;12431378;28;20072;-83
2021/03/02 02:24:13;;;;;;;38.88;19.13;;;1.10;99.90;;;;;;12452507;28;20064;-82
2021/03/02 02:30:15;;;;;;;46.93;20.73;;;1.40;99.90;;;;;;12438123;28;20065;-82
2021/03/02 02:36:18;;;;;;;41.22;19.77;;;1.90;99.90;;;;;;12450859;28;20044;-82
2021/03/02 02:42:19;;;;;;;36.75;18.42;;;2.10;99.90;;;;;;12429128;28;20048;-82
2021/03/02 02:48:21;;;;;;;34.28;17.33;;;2.40;99.90;;;;;;12443946;28;20134;-82
2021/03/02 02:54:24;;;;;;;37.75;16.63;;;2.20;99.90;;;;;;12440137;28;20051;-82
2021/03/02 03:00:26;;;;;;;33.70;15.90;;;2.00;99.90;;;;;;12456027;28;20064;-83
2021/03/02 03:06:29;;;;;;;35.05;17.05;;;1.90;99.90;;;;;;12448328;28;20056;-82
2021/03/02 03:12:34;;;;;;;31.63;16.42;;;1.80;99.90;;;;;;12442816;28;20053;-82
2021/03/02 03:18:45;;;;;;;27.85;14.57;;;1.70;99.90;;;;;;12454605;28;21154;-82
2021/03/02 03:24:47;;;;;;;31.70;15.20;;;1.50;99.90;;;;;;12444652;28;20136;-82
2021/03/02 03:30:49;;;;;;;30.00;15.30;;;1.50;99.90;;;;;;12447280;28;20123;-83
2021/03/02 03:36:52;;;;;;;33.90;15.75;;;1.40;99.90;;;;;;12448097;28;20056;-82
2021/03/02 03:42:53;;;;;;;31.00;15.10;;;1.30;99.90;;;;;;12439519;28;20049;-81
2021/03/02 03:48:54;;;;;;;28.70;14.60;;;1.20;99.90;;;;;;12434218;28;20092;-82
2021/03/02 03:54:59;;;;;;;31.60;16.17;;;1.10;99.90;;;;;;12445375;28;20132;-82
2021/03/02 04:01:03;;;;;;;28.83;14.30;;;1.10;99.90;;;;;;12451025;28;20512;-82
2021/03/02 04:07:05;;;;;;;34.53;15.32;;;1.10;99.90;;;;;;12440763;28;20050;-82
2021/03/02 04:13:14;;;;;;;30.08;13.95;;;0.90;99.90;;;;;;12458999;28;20702;-82
2021/03/02 04:19:16;;;;;;;32.55;15.50;;;0.90;99.90;;;;;;12449098;28;20549;-82
2021/03/02 04:25:17;;;;;;;28.23;13.00;;;0.90;99.90;;;;;;12436696;28;20129;-82
2021/03/02 04:31:18;;;;;;;29.95;14.30;;;0.80;99.90;;;;;;12441298;28;20046;-82
2021/03/02 04:37:19;;;;;;;33.05;15.40;;;0.80;99.90;;;;;;12434490;28;20183;-82
2021/03/02 04:43:21;;;;;;;28.55;14.07;;;1.10;99.90;;;;;;12453220;28;20095;-82
2021/03/02 04:49:25;;;;;;;32.87;15.23;;;1.00;99.90;;;;;;12437762;28;20042;-82
2021/03/02 04:55:26;;;;;;;31.95;14.70;;;0.90;99.90;;;;;;12434289;28;20124;-82
2021/03/02 05:01:28;;;;;;;34.95;15.88;;;1.00;99.90;;;;;;12434183;28;20340;-82
2021/03/02 05:07:29;;;;;;;29.45;14.32;;;1.40;99.90;;;;;;12436955;28;20049;-82
2021/03/02 05:13:30;;;;;;;28.35;14.30;;;1.30;99.90;;;;;;12452045;28;20045;-82
2021/03/02 05:19:44;;;;;;;33.33;15.75;;;1.10;99.90;;;;;;12438231;28;20140;-82
2021/03/02 05:25:45;;;;;;;31.27;14.63;;;1.00;99.90;;;;;;12441219;28;20560;-82
2021/03/02 05:31:46;;;;;;;27.52;13.25;;;0.90;99.90;;;;;;12439692;28;20076;-82
2021/03/02 05:37:48;;;;;;;27.38;13.68;;;0.90;99.90;;;;;;12434176;28;20057;-82
2021/03/02 05:43:50;;;;;;;25.80;13.98;;;0.70;99.90;;;;;;12439369;28;20086;-82
2021/03/02 05:50:07;;;;;;;24.70;12.70;;;0.80;99.90;;;;;;12441403;28;20045;-82
2021/03/02 05:56:09;;;;;;;26.90;12.70;;;0.80;99.90;;;;;;12428294;28;20541;-82
2021/03/02 06:02:10;;;;;;;33.65;14.38;;;0.80;99.90;;;;;;12439611;28;20106;-83
2021/03/02 06:08:12;;;;;;;24.35;13.07;;;0.90;99.90;;;;;;12437683;28;20068;-84
2021/03/02 06:14:24;;;;;;;30.35;15.20;;;0.90;99.90;;;;;;12438863;28;20092;-83
2021/03/02 06:20:28;;;;;;;;;;;1.00;99.90;;;;;;12429381;28;20124;-84
2021/03/02 06:26:29;;;;;;;30.48;13.95;;;0.90;99.90;;;;;;12439490;28;20023;-83
2021/03/02 06:32:58;;;;;;;27.40;14.07;;;0.90;99.90;;;;;;12433521;28;20045;-83
2021/03/02 06:39:33;;;;;;;24.13;12.52;;;1.00;99.90;;;;;;12434621;28;20042;-83
2021/03/02 06:45:34;;;;;;;26.50;13.52;;;1.20;99.90;;;;;;12454990;28;20072;-83
2021/03/02 06:51:38;;;;;;;26.38;13.98;;;1.20;99.90;;;;;;12429892;28;20071;-83
2021/03/02 06:57:40;;;;;;;25.20;13.27;;;1.40;99.90;;;;;;12440249;28;20061;-83
2021/03/02 07:03:41;;;;;;;22.50;13.18;;;1.40;99.90;;;;;;12432856;28;20095;-83
2021/03/02 07:09:42;;;;;;;28.10;14.57;;;1.50;99.90;;;;;;12432938;28;20124;-84
2021/03/02 07:15:49;;;;;;;25.27;13.70;;;1.60;99.90;;;;;;12437796;28;20075;-84
2021/03/02 07:21:54;;;;;;;25.50;13.85;;;1.70;99.90;;;;;;12437101;28;20053;-83
2021/03/02 07:27:59;;;;;;;28.85;14.07;;;2.00;99.90;;;;;;12435384;28;20060;-83
2021/03/02 07:34:01;;;;;;;24.23;13.10;;;2.20;99.90;;;;;;12441518;28;20124;-83
2021/03/02 07:40:13;;;;;;;23.20;12.82;;;2.30;99.90;;;;;;12425527;28;20547;-83
2021/03/02 07:46:36;;;;;;;24.13;13.25;;;2.50;99.90;;;;;;12444645;28;20091;-83
2021/03/02 07:52:38;;;;;;;25.65;12.90;;;2.50;99.90;;;;;;12435157;28;20041;-83
2021/03/02 07:58:39;;;;;;;25.40;13.68;;;2.90;99.90;;;;;;12447783;28;20057;-84
2021/03/02 08:04:41;;;;;;;24.50;14.05;;;3.20;99.90;;;;;;12447593;28;20045;-83
2021/03/02 08:10:43;;;;;;;22.92;13.52;;;3.60;99.90;;;;;;12439554;28;20129;-83
2021/03/02 08:17:05;;;;;;;23.70;13.43;;;3.70;99.90;;;;;;12437641;28;20079;-84
2021/03/02 08:23:07;;;;;;;20.90;12.50;;;3.90;99.90;;;;;;12445937;28;20164;-83
2021/03/02 08:29:15;;;;;;;20.42;12.75;;;4.10;99.90;;;;;;12437359;28;20083;-83
2021/03/02 08:35:27;;;;;;;21.08;12.18;;;4.40;99.90;;;;;;12444860;28;20057;-84
2021/03/02 08:41:33;;;;;;;22.23;12.73;;;4.70;99.90;;;;;;12424036;28;20041;-83
2021/03/02 08:47:38;;;;;;;17.73;10.93;;;4.90;99.90;;;;;;12454985;28;20549;-84
2021/03/02 08:53:41;;;;;;;17.15;10.15;;;5.10;99.90;;;;;;12434815;28;20054;-84
2021/03/02 08:59:43;;;;;;;18.55;10.90;;;5.40;99.90;;;;;;12441448;28;20414;-84
2021/03/02 09:05:44;;;;;;;18.70;10.95;;;5.70;99.90;;;;;;12436840;28;20168;-83
2021/03/02 09:11:52;;;;;;;16.15;9.82;;;5.90;99.90;;;;;;12424538;28;20046;-84
2021/03/02 09:18:10;;;;;;;16.27;9.88;;;6.10;99.90;;;;;;12440593;28;20076;-84
2021/03/02 09:24:14;;;;;;;15.48;9.70;;;6.40;99.90;;;;;;12443732;28;20045;-84
2021/03/02 09:30:17;;;;;;;17.83;10.05;;;6.60;99.90;;;;;;12442266;28;20168;-84
2021/03/02 09:36:19;;;;;;;15.07;9.90;;;6.70;99.90;;;;;;12435478;28;20046;-84
2021/03/02 09:42:23;;;;;;;15.40;9.15;;;7.10;99.90;;;;;;12442435;28;20050;-84
2021/03/02 09:48:25;;;;;;;13.27;7.50;;;7.50;99.90;;;;;;12443820;28;20072;-84
2021/03/02 09:54:26;;;;;;;15.02;8.57;;;7.60;99.90;;;;;;12434533;28;20136;-84
2021/03/02 10:00:34;;;;;;;13.68;8.13;;;7.90;99.90;;;;;;12438346;28;20128;-84
2021/03/02 10:06:36;;;;;;;12.73;8.93;;;8.00;99.90;;;;;;12460794;28;20115;-85
2021/03/02 10:12:37;;;;;;;13.00;8.18;;;8.20;99.90;;;;;;12434736;28;20278;-84
2021/03/02 10:18:59;;;;;;;12.70;8.55;;;8.50;99.90;;;;;;12419127;28;20061;-84
2021/03/02 10:25:03;;;;;;;12.90;7.82;;;8.90;99.90;;;;;;12431431;28;20094;-85
2021/03/02 10:31:04;;;;;;;12.13;7.43;;;9.20;99.90;;;;;;12435189;28;20034;-85
2021/03/02 10:37:07;;;;;;;11.05;7.25;;;9.60;99.90;;;;;;12436609;28;20045;-85
2021/03/02 10:43:09;;;;;;;11.98;7.38;;;10.00;99.90;;;;;;12447274;28;20103;-84
2021/03/02 10:49:10;;;;;;;11.48;7.05;;;10.10;99.90;;;;;;12443333;28;20033;-85
2021/03/02 10:55:12;;;;;;;12.02;8.25;;;10.30;99.90;;;;;;12433699;28;20033;-85
2021/03/02 11:01:14;;;;;;;11.07;7.38;;;10.70;99.90;;;;;;12438723;28;20185;-85
2021/03/02 11:07:15;;;;;;;11.30;8.10;;;10.90;99.90;;;;;;12423879;28;20140;-85
2021/03/02 11:13:17;;;;;;;15.45;7.75;;;10.90;99.90;;;;;;12440957;28;20112;-85
2021/03/02 11:19:18;;;;;;;11.93;7.25;;;11.40;99.90;;;;;;12422587;28;20045;-85
2021/03/02 11:25:20;;;;;;;11.68;7.50;;;11.50;99.90;;;;;;12455019;28;20199;-85
2021/03/02 11:31:21;;;;;;;11.38;8.07;;;11.70;99.90;;;;;;12447707;28;20050;-85
2021/03/02 11:37:23;;;;;;;12.10;7.78;;;11.80;99.90;;;;;;12448890;28;20323;-87
2021/03/02 11:43:24;;;;;;;10.90;7.60;;;12.00;99.90;;;;;;12444903;28;20433;-86
2021/03/02 11:49:25;;;;;;;10.30;7.35;;;12.20;99.90;;;;;;12439823;28;20077;-87
2021/03/02 11:55:27;;;;;;;10.85;7.07;;;12.40;99.90;;;;;;12428165;28;20045;-86
2021/03/02 12:01:28;;;;;;;11.50;7.38;;;12.40;99.90;;;;;;12432521;28;20053;-87
2021/03/02 12:07:29;;;;;;;9.55;6.80;;;12.80;99.90;;;;;;12428386;28;20050;-87
2021/03/02 12:13:31;;;;;;;10.40;7.55;;;13.20;99.90;;;;;;12436856;28;20096;-86
2021/03/02 12:19:32;;;;;;;13.35;7.60;;;13.50;99.90;;;;;;12432751;28;20545;-86
2021/03/02 12:25:33;;;;;;;11.02;7.35;;;13.60;99.90;;;;;;12437530;28;20053;-87
2021/03/02 12:31:35;;;;;;;12.00;7.43;;;13.70;99.90;;;;;;12450105;28;20090;-85
2021/03/02 12:37:36;;;;;;;11.02;7.07;;;13.80;99.90;;;;;;12439651;28;20554;-85
2021/03/02 12:43:38;;;;;;;12.68;7.20;;;13.80;99.90;;;;;;12438401;28;20045;-85
2021/03/02 12:49:39;;;;;;;11.35;6.93;;;13.90;99.90;;;;;;12443026;28;20053;-85
2021/03/02 12:55:41;;;;;;;10.18;7.18;;;13.80;99.90;;;;;;12433229;28;20133;-85
2021/03/02 13:01:45;;;;;;;10.32;6.88;;;13.90;99.90;;;;;;12437946;28;20049;-85
2021/03/02 13:07:47;;;;;;;8.53;5.87;;;14.00;99.90;;;;;;12436135;28;20048;-85
2021/03/02 13:13:49;;;;;;;7.47;3.20;;;14.40;99.90;;;;;;12445511;28;20057;-85
2021/03/02 13:19:50;;;;;;;6.40;3.08;;;14.50;99.90;;;;;;12445411;28;20505;-85
2021/03/02 13:25:54;;;;;;;5.07;2.70;;;14.30;99.90;;;;;;12437741;28;20046;-87
2021/03/02 13:31:58;;;;;;;4.10;2.63;;;14.40;99.90;;;;;;12431653;28;20179;-86
2021/03/02 13:38:07;;;;;;;5.20;2.33;;;14.30;99.90;;;;;;12435009;28;20038;-86
2021/03/02 13:44:09;;;;;;;6.35;2.92;;;14.30;99.90;;;;;;12438549;28;20387;-85
2021/03/02 13:50:13;;;;;;;4.55;2.60;;;14.20;99.90;;;;;;12429198;28;20471;-84
2021/03/02 13:56:15;;;;;;;12.07;2.92;;;14.00;99.90;;;;;;12436496;28;20042;-86
2021/03/02 14:02:21;;;;;;;7.70;3.28;;;13.70;99.90;;;;;;12424096;28;20049;-86
2021/03/02 14:08:23;;;;;;;4.80;3.20;;;13.80;99.90;;;;;;12431479;28;20100;-86
2021/03/02 14:14:25;;;;;;;6.85;3.60;;;13.60;99.90;;;;;;12424844;28;20080;-86
2021/03/02 14:20:27;;;;;;;8.60;3.60;;;13.50;99.90;;;;;;12435648;28;20179;-86
2021/03/02 14:26:30;;;;;;;6.85;3.45;;;13.50;99.90;;;;;;12421076;28;20053;-86
2021/03/02 14:32:33;;;;;;;5.10;2.95;;;13.60;99.90;;;;;;12432916;28;20049;-86
2021/03/02 14:38:34;;;;;;;6.00;3.15;;;13.50;99.90;;;;;;12450545;28;20045;-86
2021/03/02 14:44:43;;;;;;;5.82;3.50;;;13.50;99.90;;;;;;12428769;28;20782;-86
2021/03/02 14:50:46;;;;;;;4.90;3.13;;;13.60;99.90;;;;;;12426457;28;20234;-86
2021/03/02 14:56:51;;;;;;;6.70;3.67;;;13.40;99.90;;;;;;12430785;28;20129;-85
2021/03/02 15:02:55;;;;;;;7.03;3.13;;;13.50;99.90;;;;;;12429038;28;20581;-86
2021/03/02 15:08:57;;;;;;;8.45;3.33;;;13.40;99.90;;;;;;12438182;28;20116;-85
2021/03/02 15:15:03;;;;;;;5.88;3.00;;;13.30;99.90;;;;;;12417856;28;20099;-85
2021/03/02 15:21:05;;;;;;;5.43;3.17;;;13.30;99.90;;;;;;12423088;28;20050;-86
2021/03/02 15:27:09;;;;;;;8.32;3.58;;;13.40;99.90;;;;;;12424891;28;20103;-86
2021/03/02 15:33:11;;;;;;;6.55;3.28;;;13.30;99.90;;;;;;12433011;28;20053;-86
2021/03/02 15:39:13;;;;;;;5.43;2.80;;;13.20;99.90;;;;;;12438792;28;20053;-86
2021/03/02 15:45:15;;;;;;;6.93;3.22;;;13.20;99.90;;;;;;12439211;28;20087;-86
2021/03/02 15:51:17;;;;;;;7.75;3.20;;;12.90;99.90;;;;;;12432451;28;21037;-86
2021/03/02 15:57:30;;;;;;;8.02;3.63;;;12.80;99.90;;;;;;12432059;28;20493;-86
2021/03/02 16:03:34;;;;;;;7.95;3.45;;;12.60;99.90;;;;;;12431734;28;20045;-86
2021/03/02 16:09:42;;;;;;;6.85;3.70;;;12.40;99.90;;;;;;12449527;28;20136;-86
2021/03/02 16:15:46;;;;;;;8.55;3.30;;;12.30;99.90;;;;;;12440502;28;20126;-86
2021/03/02 16:21:49;;;;;;;9.40;3.10;;;12.50;99.90;;;;;;12437269;28;20474;-86
2021/03/02 16:27:56;;;;;;;6.87;3.07;;;12.50;99.90;;;;;;12435685;28;20053;-86
2021/03/02 16:33:59;;;;;;;5.88;3.08;;;12.20;99.90;;;;;;12441897;28;20046;-86
2021/03/02 16:40:04;;;;;;;5.78;2.53;;;12.10;99.90;;;;;;12434949;28;20128;-86
2021/03/02 16:46:05;;;;;;;6.78;3.20;;;12.00;99.90;;;;;;12442395;28;20037;-86
2021/03/02 16:52:13;;;;;;;6.03;3.22;;;11.50;99.90;;;;;;12449654;28;20046;-86
2021/03/02 16:58:39;;;;;;;7.20;3.67;;;11.30;99.90;;;;;;12454122;28;20057;-85
2021/03/02 17:04:43;;;;;;;10.27;3.58;;;10.80;99.90;;;;;;12434907;28;20077;-85
2021/03/02 17:10:46;;;;;;;8.83;4.13;;;10.40;99.90;;;;;;12460225;28;20098;-86
2021/03/02 17:16:47;;;;;;;9.00;4.88;;;10.10;99.90;;;;;;12444715;28;20049;-85
2021/03/02 17:22:49;;;;;;;6.95;3.95;;;9.80;99.90;;;;;;12439404;28;20045;-85
2021/03/02 17:28:50;;;;;;;9.65;4.78;;;9.60;99.90;;;;;;12435260;28;20179;-85
2021/03/02 17:34:52;;;;;;;8.35;4.43;;;9.10;99.90;;;;;;12453709;28;20049;-85
2021/03/02 17:40:53;;;;;;;10.35;4.63;;;8.40;99.90;;;;;;12438904;28;20091;-84
2021/03/02 17:46:55;;;;;;;7.75;4.75;;;8.10;99.90;;;;;;12447110;28;20540;-84
2021/03/02 17:52:56;;;;;;;7.20;3.95;;;8.10;99.90;;;;;;12462292;28;20065;-84
2021/03/02 17:58:59;;;;;;;9.02;4.35;;;8.30;99.90;;;;;;12439474;28;20056;-84
2021/03/02 18:05:01;;;;;;;10.77;4.82;;;8.50;99.90;;;;;;12485871;28;20171;-84
2021/03/02 18:11:02;;;;;;;10.15;5.32;;;8.40;99.90;;;;;;12485949;28;20610;-84
2021/03/02 18:17:04;;;;;;;8.70;5.43;;;8.80;99.90;;;;;;12457980;28;20137;-84
2021/03/02 18:23:06;;;;;;;10.32;5.55;;;8.80;99.90;;;;;;12441673;28;20089;-84
2021/03/02 18:29:21;;;;;;;7.63;4.72;;;8.70;99.90;;;;;;12434011;28;20049;-84
2021/03/02 18:35:23;;;;;;;11.85;4.82;;;8.60;99.90;;;;;;12440158;28;20131;-84
2021/03/02 18:41:29;;;;;;;9.00;4.88;;;8.60;99.90;;;;;;12437059;28;20045;-84
2021/03/02 18:47:30;;;;;;;9.75;5.28;;;8.30;99.90;;;;;;12423505;28;20128;-84
2021/03/02 18:53:32;;;;;;;12.82;5.43;;;8.00;99.90;;;;;;12438058;28;20427;-83
2021/03/02 18:59:46;;;;;;;9.93;6.23;;;8.00;99.90;;;;;;12435880;28;20046;-84
2021/03/02 19:05:47;;;;;;;9.57;5.45;;;8.00;99.90;;;;;;12438385;28;20050;-84
2021/03/02 19:11:49;;;;;;;10.45;5.35;;;7.80;99.90;;;;;;12439846;28;20701;-84
2021/03/02 19:17:50;;;;;;;11.02;6.40;;;7.60;99.90;;;;;;12447162;28;20064;-84
2021/03/02 19:23:52;;;;;;;13.38;6.25;;;7.60;99.90;;;;;;12432089;28;20042;-83
2021/03/02 19:30:10;;;;;;;11.73;7.13;;;7.60;99.90;;;;;;12435875;28;20409;-84
2021/03/02 19:36:12;;;;;;;13.60;7.50;;;7.60;99.90;;;;;;12453179;28;20132;-84
2021/03/02 19:42:13;;;;;;;11.05;6.93;;;7.40;99.90;;;;;;12450208;28;20211;-84
2021/03/02 19:48:15;;;;;;;13.13;7.35;;;7.20;99.90;;;;;;12457683;28;20092;-84
2021/03/02 19:54:16;;;;;;;13.48;8.07;;;7.00;99.90;;;;;;12456649;28;20045;-84
2021/03/02 20:00:31;;;;;;;12.50;7.60;;;7.10;99.90;;;;;;12460417;28;20045;-83
2021/03/02 20:06:32;;;;;;;21.95;7.75;;;6.90;99.90;;;;;;12461287;28;20552;-84
2021/03/02 20:12:34;;;;;;;12.52;7.03;;;6.90;99.90;;;;;;12446890;28;20639;-83
2021/03/02 20:18:36;;;;;;;10.15;5.68;;;7.00;99.90;;;;;;12440542;28;20048;-84
2021/03/02 20:24:42;;;;;;;11.32;5.35;;;7.20;99.90;;;;;;12443456;28;20064;-84
2021/03/02 20:30:54;;;;;;;8.98;5.53;;;7.60;99.90;;;;;;12441937;28;21509;-84
2021/03/02 20:36:56;;;;;;;12.07;6.80;;;7.70;99.90;;;;;;12444161;28;20061;-84
2021/03/02 20:42:57;;;;;;;11.45;5.95;;;7.80;99.90;;;;;;12442539;28;20149;-83
2021/03/02 20:48:58;;;;;;;14.18;7.20;;;7.60;99.90;;;;;;12446412;28;20054;-83
2021/03/02 20:55:00;;;;;;;11.05;6.50;;;7.60;99.90;;;;;;12438077;28;20128;-83
2021/03/02 21:01:13;;;;;;;14.95;10.23;;;7.50;99.90;;;;;;12446982;28;20380;-84
2021/03/02 21:07:15;;;;;;;12.13;8.15;;;7.30;99.90;;;;;;12437808;28;20042;-83
2021/03/02 21:13:16;;;;;;;22.58;10.00;;;7.00;99.90;;;;;;12438827;28;20133;-84
2021/03/02 21:19:18;;;;;;;14.65;8.70;;;6.80;99.90;;;;;;12449589;28;20080;-84
2021/03/02 21:25:19;;;;;;;20.30;11.30;;;6.60;99.90;;;;;;12429144;28;20140;-84
2021/03/02 21:31:34;;;;;;;18.15;10.95;;;6.60;99.90;;;;;;12438972;28;20421;-84
2021/03/02 21:37:36;;;;;;;17.92;11.15;;;6.40;99.90;;;;;;12434300;28;20050;-84
2021/03/02 21:43:38;;;;;;;21.52;10.85;;;6.40;99.90;;;;;;12442773;28;21513;-84
2021/03/02 21:49:39;;;;;;;17.65;9.90;;;6.00;99.90;;;;;;12442394;28;20623;-84
2021/03/02 21:55:41;;;;;;;15.98;8.85;;;5.90;99.90;;;;;;12462740;28;20891;-84
2021/03/02 22:01:56;;;;;;;12.60;7.05;;;6.10;99.90;;;;;;12455464;28;20084;-84
2021/03/02 22:07:58;;;;;;;17.48;9.63;;;6.50;99.90;;;;;;12437512;28;20046;-84
2021/03/02 22:13:59;;;;;;;14.30;9.55;;;6.50;99.90;;;;;;12451832;28;20053;-83
2021/03/02 22:20:00;;;;;;;16.48;9.40;;;6.30;99.90;;;;;;12425340;28;20180;-83
2021/03/02 22:26:03;;;;;;;14.82;9.70;;;6.00;99.90;;;;;;12435098;28;20080;-83
2021/03/02 22:32:21;;;;;;;17.92;10.05;;;5.90;99.90;;;;;;12459481;28;20049;-83
2021/03/02 22:38:22;;;;;;;21.30;10.20;;;5.70;99.90;;;;;;12431409;28;20041;-84
2021/03/02 22:44:24;;;;;;;18.13;9.93;;;5.60;99.90;;;;;;12429895;28;20548;-83
2021/03/02 22:50:29;;;;;;;16.48;10.27;;;5.60;99.90;;;;;;12450632;28;20076;-83
2021/03/02 22:56:31;;;;;;;23.88;10.98;;;5.70;99.90;;;;;;12429145;28;20049;-84
2021/03/02 23:02:41;;;;;;;20.20;11.13;;;5.50;99.90;;;;;;12447585;28;20053;-83
2021/03/02 23:08:43;;;;;;;15.05;8.80;;;5.20;99.90;;;;;;12455536;28;20053;-83
2021/03/02 23:14:45;;;;;;;16.85;8.52;;;4.90;99.90;;;;;;12447525;28;20080;-83
2021/03/02 23:20:46;;;;;;;17.42;9.05;;;4.80;99.90;;;;;;12457130;28;20073;-83
2021/03/02 23:26:58;;;;;;;16.98;9.88;;;4.70;99.90;;;;;;12445077;28;20054;-83
2021/03/02 23:33:04;;;;;;;16.98;9.38;;;4.70;99.90;;;;;;12454599;28;20049;-83
2021/03/02 23:39:05;;;;;;;19.30;10.38;;;4.50;99.90;;;;;;12456890;28;20133;-83
2021/03/02 23:45:07;;;;;;;17.73;10.10;;;4.50;99.90;;;;;;12451213;28;20053;-83
2021/03/02 23:51:10;;;;;;;17.55;9.43;;;4.50;99.90;;;;;;12456455;28;20072;-84
2021/03/02 23:57:11;;;;;;;16.75;9.30;;;4.70;99.90;;;;;;12452534;28;20049;-83
